sensor_id;sensor_type;location;lat;lon;timestamp;temperature;humidity
14473;DHT22;7322;50.872;4.386;2023-11-19T00:00:53;17.80;99.90
14473;DHT22;7322;50.872;4.386;2023-11-19T00:03:21;17.70;99.90
14473;DHT22;7322;50.872;4.386;2023-11-19T00:05:48;17.70;99.90
14473;DHT22;7322;50.872;4.386;2023-11-19T00:08:17;17.70;99.90
14473;DHT22;7322;50.872;4.386;2023-11-19T00:10:44;17.70;99.90
14473;DHT22;7322;50.872;4.386;2023-11-19T00:13:12;17.70;99.90
14473;DHT22;7322;50.872;4.386;2023-11-19T00:15:39;17.70;99.90
14473;DHT22;7322;50.872;4.386;2023-11-19T00:18:06;17.70;99.90
14473;DHT22;7322;50.872;4.386;2023-11-19T00:20:33;17.70;99.90
14473;DHT22;7322;50.872;4.386;2023-11-19T00:23:00;17.80;99.90
14473;DHT22;7322;50.872;4.386;2023-11-19T00:25:29;17.70;99.90
14473;DHT22;7322;50.872;4.386;2023-11-19T00:27:56;17.80;99.90
14473;DHT22;7322;50.872;4.386;2023-11-19T00:30:23;17.70;99.90
14473;DHT22;7322;50.872;4.386;2023-11-19T00:32:50;17.70;99.90
14473;DHT22;7322;50.872;4.386;2023-11-19T00:35:18;17.70;99.90
14473;DHT22;7322;50.872;4.386;2023-11-19T00:37:45;17.70;99.90
14473;DHT22;7322;50.872;4.386;2023-11-19T00:40:13;17.80;99.90
14473;DHT22;7322;50.872;4.386;2023-11-19T00:42:43;17.70;99.90
14473;DHT22;7322;50.872;4.386;2023-11-19T00:45:10;17.70;99.90
14473;DHT22;7322;50.872;4.386;2023-11-19T00:47:38;17.70;99.90
14473;DHT22;7322;50.872;4.386;2023-11-19T00:50:06;17.70;99.90
14473;DHT22;7322;50.872;4.386;2023-11-19T00:52:35;17.70;99.90
14473;DHT22;7322;50.872;4.386;2023-11-19T00:55:04;17.70;99.90
14473;DHT22;7322;50.872;4.386;2023-11-19T00:57:32;17.70;99.90
14473;DHT22;7322;50.872;4.386;2023-11-19T01:00:01;17.70;99.90
14473;DHT22;7322;50.872;4.386;2023-11-19T01:02:29;17.70;99.90
14473;DHT22;7322;50.872;4.386;2023-11-19T01:04:56;17.70;99.90
14473;DHT22;7322;50.872;4.386;2023-11-19T01:07:23;17.80;99.90
14473;DHT22;7322;50.872;4.386;2023-11-19T01:09:52;17.80;99.90
14473;DHT22;7322;50.872;4.386;2023-11-19T01:12:19;17.70;99.90
14473;DHT22;7322;50.872;4.386;2023-11-19T01:14:46;17.80;99.90
14473;DHT22;7322;50.872;4.386;2023-11-19T01:17:15;17.70;99.90
14473;DHT22;7322;50.872;4.386;2023-11-19T01:19:43;17.70;99.90
14473;DHT22;7322;50.872;4.386;2023-11-19T01:22:11;17.80;99.90
14473;DHT22;7322;50.872;4.386;2023-11-19T01:24:38;17.70;99.90
14473;DHT22;7322;50.872;4.386;2023-11-19T01:27:05;17.80;99.90
14473;DHT22;7322;50.872;4.386;2023-11-19T01:29:32;17.70;99.90
14473;DHT22;7322;50.872;4.386;2023-11-19T01:31:59;17.70;99.90
14473;DHT22;7322;50.872;4.386;2023-11-19T01:34:28;17.80;99.90
14473;DHT22;7322;50.872;4.386;2023-11-19T01:36:55;17.70;99.90
14473;DHT22;7322;50.872;4.386;2023-11-19T01:39:22;17.70;99.90
14473;DHT22;7322;50.872;4.386;2023-11-19T01:41:50;17.80;99.90
14473;DHT22;7322;50.872;4.386;2023-11-19T01:44:17;17.80;99.90
14473;DHT22;7322;50.872;4.386;2023-11-19T01:46:45;17.80;99.90
14473;DHT22;7322;50.872;4.386;2023-11-19T01:49:15;17.70;99.90
14473;DHT22;7322;50.872;4.386;2023-11-19T01:51:44;17.70;99.90
14473;DHT22;7322;50.872;4.386;2023-11-19T01:54:12;17.80;99.90
14473;DHT22;7322;50.872;4.386;2023-11-19T01:56:41;17.70;99.90
14473;DHT22;7322;50.872;4.386;2023-11-19T01:59:10;17.70;99.90
14473;DHT22;7322;50.872;4.386;2023-11-19T02:01:40;17.80;99.90
14473;DHT22;7322;50.872;4.386;2023-11-19T02:04:08;17.80;99.90
14473;DHT22;7322;50.872;4.386;2023-11-19T02:06:36;17.70;99.90
14473;DHT22;7322;50.872;4.386;2023-11-19T02:09:05;17.70;99.90
14473;DHT22;7322;50.872;4.386;2023-11-19T02:11:33;17.80;99.90
14473;DHT22;7322;50.872;4.386;2023-11-19T02:14:01;17.70;99.90
14473;DHT22;7322;50.872;4.386;2023-11-19T02:16:29;17.70;99.90
14473;DHT22;7322;50.872;4.386;2023-11-19T02:18:56;17.80;99.90
14473;DHT22;7322;50.872;4.386;2023-11-19T02:21:23;17.80;99.90
14473;DHT22;7322;50.872;4.386;2023-11-19T02:23:50;17.80;99.90
14473;DHT22;7322;50.872;4.386;2023-11-19T02:26:28;17.80;99.90
14473;DHT22;7322;50.872;4.386;2023-11-19T02:28:59;17.80;99.90
14473;DHT22;7322;50.872;4.386;2023-11-19T02:31:26;17.80;99.90
14473;DHT22;7322;50.872;4.386;2023-11-19T02:33:53;17.80;99.90
14473;DHT22;7322;50.872;4.386;2023-11-19T02:36:26;17.80;99.90
14473;DHT22;7322;50.872;4.386;2023-11-19T02:38:55;17.80;99.90
14473;DHT22;7322;50.872;4.386;2023-11-19T02:41:24;17.70;99.90
14473;DHT22;7322;50.872;4.386;2023-11-19T02:43:51;17.70;99.90
14473;DHT22;7322;50.872;4.386;2023-11-19T02:46:19;17.80;99.90
14473;DHT22;7322;50.872;4.386;2023-11-19T02:48:46;17.80;99.90
14473;DHT22;7322;50.872;4.386;2023-11-19T02:51:13;17.80;99.90
14473;DHT22;7322;50.872;4.386;2023-11-19T02:53:40;17.80;99.90
14473;DHT22;7322;50.872;4.386;2023-11-19T02:56:10;17.80;99.90
14473;DHT22;7322;50.872;4.386;2023-11-19T02:58:45;17.80;99.90
14473;DHT22;7322;50.872;4.386;2023-11-19T03:01:14;17.70;99.90
14473;DHT22;7322;50.872;4.386;2023-11-19T03:03:51;17.80;99.90
14473;DHT22;7322;50.872;4.386;2023-11-19T03:06:20;17.80;99.90
14473;DHT22;7322;50.872;4.386;2023-11-19T03:08:48;17.80;99.90
14473;DHT22;7322;50.872;4.386;2023-11-19T03:11:15;17.70;99.90
14473;DHT22;7322;50.872;4.386;2023-11-19T03:13:42;17.70;99.90
14473;DHT22;7322;50.872;4.386;2023-11-19T03:16:09;17.70;99.90
14473;DHT22;7322;50.872;4.386;2023-11-19T03:18:38;17.80;99.90
14473;DHT22;7322;50.872;4.386;2023-11-19T03:21:07;17.70;99.90
14473;DHT22;7322;50.872;4.386;2023-11-19T03:23:34;17.70;99.90
14473;DHT22;7322;50.872;4.386;2023-11-19T03:26:02;17.70;99.90
14473;DHT22;7322;50.872;4.386;2023-11-19T03:28:31;17.70;99.90
14473;DHT22;7322;50.872;4.386;2023-11-19T03:30:58;17.70;99.90
14473;DHT22;7322;50.872;4.386;2023-11-19T03:33:25;17.70;99.90
14473;DHT22;7322;50.872;4.386;2023-11-19T03:35:53;17.70;99.90
14473;DHT22;7322;50.872;4.386;2023-11-19T03:38:23;17.70;99.90
14473;DHT22;7322;50.872;4.386;2023-11-19T03:40:57;17.70;99.90
14473;DHT22;7322;50.872;4.386;2023-11-19T03:43:24;17.70;99.90
14473;DHT22;7322;50.872;4.386;2023-11-19T03:45:53;17.70;99.90
14473;DHT22;7322;50.872;4.386;2023-11-19T03:48:21;17.70;99.90
14473;DHT22;7322;50.872;4.386;2023-11-19T03:50:48;17.70;99.90
14473;DHT22;7322;50.872;4.386;2023-11-19T03:53:15;17.70;99.90
14473;DHT22;7322;50.872;4.386;2023-11-19T03:55:43;17.70;99.90
14473;DHT22;7322;50.872;4.386;2023-11-19T03:58:11;17.70;99.90
14473;DHT22;7322;50.872;4.386;2023-11-19T04:00:38;17.70;99.90
14473;DHT22;7322;50.872;4.386;2023-11-19T04:03:07;17.70;99.90
14473;DHT22;7322;50.872;4.386;2023-11-19T04:05:35;17.70;99.90
14473;DHT22;7322;50.872;4.386;2023-11-19T04:08:02;17.70;99.90
14473;DHT22;7322;50.872;4.386;2023-11-19T04:10:29;17.70;99.90
14473;DHT22;7322;50.872;4.386;2023-11-19T04:12:58;17.70;99.90
14473;DHT22;7322;50.872;4.386;2023-11-19T04:15:25;17.70;99.90
14473;DHT22;7322;50.872;4.386;2023-11-19T04:17:52;17.70;99.90
14473;DHT22;7322;50.872;4.386;2023-11-19T04:20:19;17.70;99.90
14473;DHT22;7322;50.872;4.386;2023-11-19T04:22:46;17.70;99.90
14473;DHT22;7322;50.872;4.386;2023-11-19T04:25:13;17.70;99.90
14473;DHT22;7322;50.872;4.386;2023-11-19T04:27:40;17.70;99.90
14473;DHT22;7322;50.872;4.386;2023-11-19T04:30:09;17.70;99.90
14473;DHT22;7322;50.872;4.386;2023-11-19T04:32:39;17.70;99.90
14473;DHT22;7322;50.872;4.386;2023-11-19T04:35:08;17.70;99.90
14473;DHT22;7322;50.872;4.386;2023-11-19T04:37:36;17.70;99.90
14473;DHT22;7322;50.872;4.386;2023-11-19T04:40:04;17.70;99.90
14473;DHT22;7322;50.872;4.386;2023-11-19T04:42:31;17.70;99.90
14473;DHT22;7322;50.872;4.386;2023-11-19T04:44:59;17.70;99.90
14473;DHT22;7322;50.872;4.386;2023-11-19T04:47:28;17.60;99.90
14473;DHT22;7322;50.872;4.386;2023-11-19T04:49:55;17.70;99.90
14473;DHT22;7322;50.872;4.386;2023-11-19T04:52:22;17.60;99.90
14473;DHT22;7322;50.872;4.386;2023-11-19T04:54:49;17.70;99.90
14473;DHT22;7322;50.872;4.386;2023-11-19T04:57:17;17.60;99.90
14473;DHT22;7322;50.872;4.386;2023-11-19T04:59:44;17.60;99.90
14473;DHT22;7322;50.872;4.386;2023-11-19T05:02:13;17.60;99.90
14473;DHT22;7322;50.872;4.386;2023-11-19T05:04:44;17.60;99.90
14473;DHT22;7322;50.872;4.386;2023-11-19T05:07:12;17.60;99.90
14473;DHT22;7322;50.872;4.386;2023-11-19T05:09:39;17.60;99.90
14473;DHT22;7322;50.872;4.386;2023-11-19T05:12:06;17.60;99.90
14473;DHT22;7322;50.872;4.386;2023-11-19T05:14:39;17.60;99.90
14473;DHT22;7322;50.872;4.386;2023-11-19T05:17:06;17.60;99.90
14473;DHT22;7322;50.872;4.386;2023-11-19T05:19:34;17.60;99.90
14473;DHT22;7322;50.872;4.386;2023-11-19T05:22:03;17.60;99.90
14473;DHT22;7322;50.872;4.386;2023-11-19T05:24:31;17.60;99.90
14473;DHT22;7322;50.872;4.386;2023-11-19T05:26:59;17.70;99.90
14473;DHT22;7322;50.872;4.386;2023-11-19T05:29:27;17.60;99.90
14473;DHT22;7322;50.872;4.386;2023-11-19T05:31:54;17.60;99.90
14473;DHT22;7322;50.872;4.386;2023-11-19T05:34:21;17.60;99.90
14473;DHT22;7322;50.872;4.386;2023-11-19T05:36:51;17.60;99.90
14473;DHT22;7322;50.872;4.386;2023-11-19T05:39:20;17.60;99.90
14473;DHT22;7322;50.872;4.386;2023-11-19T05:41:47;17.60;99.90
14473;DHT22;7322;50.872;4.386;2023-11-19T05:44:14;17.60;99.90
14473;DHT22;7322;50.872;4.386;2023-11-19T05:46:42;17.70;99.90
14473;DHT22;7322;50.872;4.386;2023-11-19T05:49:10;17.60;99.90
14473;DHT22;7322;50.872;4.386;2023-11-19T05:51:37;17.60;99.90
14473;DHT22;7322;50.872;4.386;2023-11-19T05:54:06;17.60;99.90
14473;DHT22;7322;50.872;4.386;2023-11-19T05:56:39;17.60;99.90
14473;DHT22;7322;50.872;4.386;2023-11-19T05:59:06;17.60;99.90
14473;DHT22;7322;50.872;4.386;2023-11-19T06:01:40;17.60;99.90
14473;DHT22;7322;50.872;4.386;2023-11-19T06:04:09;17.60;99.90
14473;DHT22;7322;50.872;4.386;2023-11-19T06:06:36;17.60;99.90
14473;DHT22;7322;50.872;4.386;2023-11-19T06:09:03;17.70;99.90
14473;DHT22;7322;50.872;4.386;2023-11-19T06:11:32;17.60;99.90
14473;DHT22;7322;50.872;4.386;2023-11-19T06:14:01;17.60;99.90
14473;DHT22;7322;50.872;4.386;2023-11-19T06:16:28;17.60;99.90
14473;DHT22;7322;50.872;4.386;2023-11-19T06:18:55;17.60;99.90
14473;DHT22;7322;50.872;4.386;2023-11-19T06:21:22;17.60;99.90
14473;DHT22;7322;50.872;4.386;2023-11-19T06:23:49;17.60;99.90
14473;DHT22;7322;50.872;4.386;2023-11-19T06:26:17;17.60;99.90
14473;DHT22;7322;50.872;4.386;2023-11-19T06:28:45;17.60;99.90
14473;DHT22;7322;50.872;4.386;2023-11-19T06:31:13;17.60;99.90
14473;DHT22;7322;50.872;4.386;2023-11-19T06:33:41;17.60;99.90
14473;DHT22;7322;50.872;4.386;2023-11-19T06:36:08;17.60;99.90
14473;DHT22;7322;50.872;4.386;2023-11-19T06:38:36;17.60;99.90
14473;DHT22;7322;50.872;4.386;2023-11-19T06:41:08;17.70;99.90
14473;DHT22;7322;50.872;4.386;2023-11-19T06:43:36;17.80;99.90
14473;DHT22;7322;50.872;4.386;2023-11-19T06:46:03;18.00;99.90
14473;DHT22;7322;50.872;4.386;2023-11-19T06:48:44;18.10;99.90
14473;DHT22;7322;50.872;4.386;2023-11-19T06:51:11;18.30;99.90
14473;DHT22;7322;50.872;4.386;2023-11-19T06:53:38;18.40;99.90
14473;DHT22;7322;50.872;4.386;2023-11-19T06:56:27;18.50;99.90
14473;DHT22;7322;50.872;4.386;2023-11-19T06:58:54;18.60;99.90
14473;DHT22;7322;50.872;4.386;2023-11-19T07:01:40;18.70;99.90
14473;DHT22;7322;50.872;4.386;2023-11-19T07:04:17;18.80;99.90
14473;DHT22;7322;50.872;4.386;2023-11-19T07:06:44;18.90;99.90
14473;DHT22;7322;50.872;4.386;2023-11-19T07:09:11;18.90;99.90
14473;DHT22;7322;50.872;4.386;2023-11-19T07:11:39;19.00;99.90
14473;DHT22;7322;50.872;4.386;2023-11-19T07:14:07;19.10;99.90
14473;DHT22;7322;50.872;4.386;2023-11-19T07:16:34;19.10;99.90
14473;DHT22;7322;50.872;4.386;2023-11-19T07:19:03;19.10;99.90
14473;DHT22;7322;50.872;4.386;2023-11-19T07:21:32;19.20;99.90
14473;DHT22;7322;50.872;4.386;2023-11-19T07:24:00;19.10;99.90
14473;DHT22;7322;50.872;4.386;2023-11-19T07:26:29;19.10;99.90
14473;DHT22;7322;50.872;4.386;2023-11-19T07:28:56;19.20;99.90
14473;DHT22;7322;50.872;4.386;2023-11-19T07:31:23;19.10;99.90
14473;DHT22;7322;50.872;4.386;2023-11-19T07:33:50;19.10;99.90
14473;DHT22;7322;50.872;4.386;2023-11-19T07:36:18;19.10;99.90
14473;DHT22;7322;50.872;4.386;2023-11-19T07:38:47;19.10;99.90
14473;DHT22;7322;50.872;4.386;2023-11-19T07:41:13;19.00;99.90
14473;DHT22;7322;50.872;4.386;2023-11-19T07:43:41;19.00;99.90
14473;DHT22;7322;50.872;4.386;2023-11-19T07:46:11;19.00;99.90
14473;DHT22;7322;50.872;4.386;2023-11-19T07:48:39;18.90;99.90
14473;DHT22;7322;50.872;4.386;2023-11-19T07:51:08;18.90;99.90
14473;DHT22;7322;50.872;4.386;2023-11-19T07:57:21;18.90;99.90
14473;DHT22;7322;50.872;4.386;2023-11-19T07:59:50;18.80;99.90
14473;DHT22;7322;50.872;4.386;2023-11-19T08:02:17;18.80;99.90
14473;DHT22;7322;50.872;4.386;2023-11-19T08:04:44;18.70;99.90
14473;DHT22;7322;50.872;4.386;2023-11-19T08:07:11;18.70;99.90
14473;DHT22;7322;50.872;4.386;2023-11-19T08:09:51;18.70;99.90
14473;DHT22;7322;50.872;4.386;2023-11-19T08:12:21;18.60;99.90
14473;DHT22;7322;50.872;4.386;2023-11-19T08:14:49;18.60;99.90
14473;DHT22;7322;50.872;4.386;2023-11-19T08:17:16;18.60;99.90
14473;DHT22;7322;50.872;4.386;2023-11-19T08:19:43;18.60;99.90
14473;DHT22;7322;50.872;4.386;2023-11-19T08:22:10;18.60;99.90
14473;DHT22;7322;50.872;4.386;2023-11-19T08:24:37;18.60;99.90
14473;DHT22;7322;50.872;4.386;2023-11-19T08:27:04;18.60;99.90
14473;DHT22;7322;50.872;4.386;2023-11-19T08:29:33;18.60;99.90
14473;DHT22;7322;50.872;4.386;2023-11-19T08:32:00;18.50;99.90
14473;DHT22;7322;50.872;4.386;2023-11-19T08:34:29;18.60;99.90
14473;DHT22;7322;50.872;4.386;2023-11-19T08:36:59;18.60;99.90
14473;DHT22;7322;50.872;4.386;2023-11-19T08:39:26;18.50;99.90
14473;DHT22;7322;50.872;4.386;2023-11-19T08:41:53;18.60;99.90
14473;DHT22;7322;50.872;4.386;2023-11-19T08:44:21;18.50;99.90
14473;DHT22;7322;50.872;4.386;2023-11-19T08:46:49;18.50;99.90
14473;DHT22;7322;50.872;4.386;2023-11-19T08:49:17;18.50;99.90
14473;DHT22;7322;50.872;4.386;2023-11-19T08:51:44;18.50;99.90
14473;DHT22;7322;50.872;4.386;2023-11-19T08:54:11;18.50;99.90
14473;DHT22;7322;50.872;4.386;2023-11-19T08:56:39;18.40;99.90
14473;DHT22;7322;50.872;4.386;2023-11-19T08:59:06;18.50;99.90
14473;DHT22;7322;50.872;4.386;2023-11-19T09:01:34;18.40;99.90
14473;DHT22;7322;50.872;4.386;2023-11-19T09:04:03;18.50;99.90
14473;DHT22;7322;50.872;4.386;2023-11-19T09:06:31;18.50;99.90
14473;DHT22;7322;50.872;4.386;2023-11-19T09:08:59;18.40;99.90
14473;DHT22;7322;50.872;4.386;2023-11-19T09:11:28;18.50;99.90
14473;DHT22;7322;50.872;4.386;2023-11-19T09:14:01;18.50;99.90
14473;DHT22;7322;50.872;4.386;2023-11-19T09:19:54;18.40;99.90
14473;DHT22;7322;50.872;4.386;2023-11-19T09:22:27;18.50;99.90
14473;DHT22;7322;50.872;4.386;2023-11-19T09:25:14;18.30;99.90
14473;DHT22;7322;50.872;4.386;2023-11-19T09:27:51;18.40;99.90
14473;DHT22;7322;50.872;4.386;2023-11-19T09:30:36;18.40;99.90
14473;DHT22;7322;50.872;4.386;2023-11-19T09:33:12;18.30;99.90
14473;DHT22;7322;50.872;4.386;2023-11-19T09:35:45;18.30;99.90
14473;DHT22;7322;50.872;4.386;2023-11-19T09:38:22;18.30;99.90
14473;DHT22;7322;50.872;4.386;2023-11-19T09:41:09;18.30;99.90
14473;DHT22;7322;50.872;4.386;2023-11-19T09:44:10;18.20;99.90
14473;DHT22;7322;50.872;4.386;2023-11-19T09:47:00;18.20;99.90
14473;DHT22;7322;50.872;4.386;2023-11-19T09:49:59;18.20;99.90
14473;DHT22;7322;50.872;4.386;2023-11-19T09:52:47;18.20;99.90
14473;DHT22;7322;50.872;4.386;2023-11-19T09:55:24;18.30;99.90
14473;DHT22;7322;50.872;4.386;2023-11-19T09:59:54;18.20;99.90
14473;DHT22;7322;50.872;4.386;2023-11-19T10:01:02;18.20;99.90
14473;DHT22;7322;50.872;4.386;2023-11-19T10:03:36;18.10;99.90
14473;DHT22;7322;50.872;4.386;2023-11-19T10:06:29;18.10;99.90
14473;DHT22;7322;50.872;4.386;2023-11-19T10:09:14;18.10;99.90
14473;DHT22;7322;50.872;4.386;2023-11-19T10:11:45;18.10;99.90
14473;DHT22;7322;50.872;4.386;2023-11-19T10:14:14;18.10;99.90
14473;DHT22;7322;50.872;4.386;2023-11-19T10:16:50;18.10;99.90
14473;DHT22;7322;50.872;4.386;2023-11-19T10:19:33;18.10;99.90
14473;DHT22;7322;50.872;4.386;2023-11-19T10:22:21;18.10;99.90
14473;DHT22;7322;50.872;4.386;2023-11-19T10:24:55;18.10;99.90
14473;DHT22;7322;50.872;4.386;2023-11-19T10:27:24;18.10;99.90
14473;DHT22;7322;50.872;4.386;2023-11-19T10:30:02;18.10;99.90
14473;DHT22;7322;50.872;4.386;2023-11-19T10:32:38;18.10;99.90
14473;DHT22;7322;50.872;4.386;2023-11-19T10:35:13;18.10;99.90
14473;DHT22;7322;50.872;4.386;2023-11-19T10:37:43;18.10;99.90
14473;DHT22;7322;50.872;4.386;2023-11-19T10:40:21;18.10;99.90
14473;DHT22;7322;50.872;4.386;2023-11-19T10:43:16;18.10;99.90
14473;DHT22;7322;50.872;4.386;2023-11-19T10:45:51;18.10;99.90
14473;DHT22;7322;50.872;4.386;2023-11-19T10:48:28;18.10;99.90
14473;DHT22;7322;50.872;4.386;2023-11-19T10:50:58;18.10;99.90
14473;DHT22;7322;50.872;4.386;2023-11-19T10:53:27;18.10;99.90
14473;DHT22;7322;50.872;4.386;2023-11-19T10:56:10;18.10;99.90
14473;DHT22;7322;50.872;4.386;2023-11-19T10:58:53;18.00;99.90
14473;DHT22;7322;50.872;4.386;2023-11-19T11:01:46;18.10;99.90
14473;DHT22;7322;50.872;4.386;2023-11-19T11:04:33;18.00;99.90
14473;DHT22;7322;50.872;4.386;2023-11-19T11:07:03;18.00;99.90
14473;DHT22;7322;50.872;4.386;2023-11-19T11:09:34;18.00;99.90
14473;DHT22;7322;50.872;4.386;2023-11-19T11:12:11;18.00;99.90
14473;DHT22;7322;50.872;4.386;2023-11-19T11:14:47;18.00;99.90
14473;DHT22;7322;50.872;4.386;2023-11-19T11:17:25;18.00;99.90
14473;DHT22;7322;50.872;4.386;2023-11-19T11:19:56;18.00;99.90
14473;DHT22;7322;50.872;4.386;2023-11-19T11:22:52;18.00;99.90
14473;DHT22;7322;50.872;4.386;2023-11-19T11:25:39;18.00;99.90
14473;DHT22;7322;50.872;4.386;2023-11-19T11:28:43;18.00;99.90
14473;DHT22;7322;50.872;4.386;2023-11-19T11:31:29;18.00;99.90
14473;DHT22;7322;50.872;4.386;2023-11-19T11:37:26;18.00;99.90
14473;DHT22;7322;50.872;4.386;2023-11-19T11:40:01;18.00;99.90
14473;DHT22;7322;50.872;4.386;2023-11-19T11:42:39;18.00;99.90
14473;DHT22;7322;50.872;4.386;2023-11-19T11:45:41;18.00;99.90
14473;DHT22;7322;50.872;4.386;2023-11-19T11:48:17;18.00;99.90
14473;DHT22;7322;50.872;4.386;2023-11-19T11:53:51;18.00;99.90
14473;DHT22;7322;50.872;4.386;2023-11-19T11:56:33;18.00;99.90
14473;DHT22;7322;50.872;4.386;2023-11-19T11:59:07;18.00;99.90
14473;DHT22;7322;50.872;4.386;2023-11-19T12:01:36;18.00;99.90
14473;DHT22;7322;50.872;4.386;2023-11-19T12:04:14;18.00;99.90
14473;DHT22;7322;50.872;4.386;2023-11-19T12:07:03;18.00;99.90
14473;DHT22;7322;50.872;4.386;2023-11-19T12:09:33;18.00;99.90
14473;DHT22;7322;50.872;4.386;2023-11-19T12:15:28;18.00;99.90
14473;DHT22;7322;50.872;4.386;2023-11-19T12:18:05;18.00;99.90
14473;DHT22;7322;50.872;4.386;2023-11-19T12:21:14;18.00;99.90
14473;DHT22;7322;50.872;4.386;2023-11-19T12:27:06;18.00;99.90
14473;DHT22;7322;50.872;4.386;2023-11-19T12:29:42;18.00;99.90
14473;DHT22;7322;50.872;4.386;2023-11-19T12:32:10;18.00;99.90
14473;DHT22;7322;50.872;4.386;2023-11-19T12:34:47;18.00;99.90
14473;DHT22;7322;50.872;4.386;2023-11-19T12:37:24;18.00;99.90
14473;DHT22;7322;50.872;4.386;2023-11-19T12:39:51;18.00;99.90
14473;DHT22;7322;50.872;4.386;2023-11-19T12:42:34;18.00;99.90
14473;DHT22;7322;50.872;4.386;2023-11-19T12:45:01;18.00;99.90
14473;DHT22;7322;50.872;4.386;2023-11-19T12:47:29;18.00;99.90
14473;DHT22;7322;50.872;4.386;2023-11-19T12:49:58;18.00;99.90
14473;DHT22;7322;50.872;4.386;2023-11-19T12:52:25;18.00;99.90
14473;DHT22;7322;50.872;4.386;2023-11-19T12:54:53;18.00;99.90
14473;DHT22;7322;50.872;4.386;2023-11-19T12:57:20;18.10;99.90
14473;DHT22;7322;50.872;4.386;2023-11-19T12:59:56;18.10;99.90
14473;DHT22;7322;50.872;4.386;2023-11-19T13:02:23;18.10;99.90
14473;DHT22;7322;50.872;4.386;2023-11-19T13:05:26;18.00;99.90
14473;DHT22;7322;50.872;4.386;2023-11-19T13:08:03;18.10;99.90
14473;DHT22;7322;50.872;4.386;2023-11-19T13:10:31;18.20;99.90
14473;DHT22;7322;50.872;4.386;2023-11-19T13:13:05;18.20;99.90
14473;DHT22;7322;50.872;4.386;2023-11-19T13:15:34;18.20;99.90
14473;DHT22;7322;50.872;4.386;2023-11-19T13:18:02;18.20;99.90
14473;DHT22;7322;50.872;4.386;2023-11-19T13:20:45;18.10;99.90
14473;DHT22;7322;50.872;4.386;2023-11-19T13:23:12;18.20;99.90
14473;DHT22;7322;50.872;4.386;2023-11-19T13:26:16;18.20;99.90
14473;DHT22;7322;50.872;4.386;2023-11-19T13:28:45;18.10;99.90
14473;DHT22;7322;50.872;4.386;2023-11-19T13:31:17;18.10;99.90
14473;DHT22;7322;50.872;4.386;2023-11-19T13:33:45;18.10;99.90
14473;DHT22;7322;50.872;4.386;2023-11-19T13:36:14;18.10;99.90
14473;DHT22;7322;50.872;4.386;2023-11-19T13:38:43;18.10;99.90
14473;DHT22;7322;50.872;4.386;2023-11-19T13:41:11;18.20;99.90
14473;DHT22;7322;50.872;4.386;2023-11-19T13:46:33;18.20;99.90
14473;DHT22;7322;50.872;4.386;2023-11-19T13:49:01;18.20;99.90
14473;DHT22;7322;50.872;4.386;2023-11-19T13:51:30;18.20;99.90
14473;DHT22;7322;50.872;4.386;2023-11-19T13:54:04;18.20;99.90
14473;DHT22;7322;50.872;4.386;2023-11-19T13:56:32;18.20;99.90
14473;DHT22;7322;50.872;4.386;2023-11-19T13:59:01;18.20;99.90
14473;DHT22;7322;50.872;4.386;2023-11-19T14:01:28;18.20;99.90
14473;DHT22;7322;50.872;4.386;2023-11-19T14:03:56;18.20;99.90
14473;DHT22;7322;50.872;4.386;2023-11-19T14:06:23;18.30;99.90
14473;DHT22;7322;50.872;4.386;2023-11-19T14:08:53;18.30;99.90
14473;DHT22;7322;50.872;4.386;2023-11-19T14:11:29;18.30;99.90
14473;DHT22;7322;50.872;4.386;2023-11-19T14:13:56;18.20;99.90
14473;DHT22;7322;50.872;4.386;2023-11-19T14:16:26;18.20;99.90
14473;DHT22;7322;50.872;4.386;2023-11-19T14:18:53;18.10;99.90
14473;DHT22;7322;50.872;4.386;2023-11-19T14:21:20;18.10;99.90
14473;DHT22;7322;50.872;4.386;2023-11-19T14:23:47;18.10;99.90
14473;DHT22;7322;50.872;4.386;2023-11-19T14:26:15;18.10;99.90
14473;DHT22;7322;50.872;4.386;2023-11-19T14:28:42;18.10;99.90
14473;DHT22;7322;50.872;4.386;2023-11-19T14:31:09;18.10;99.90
14473;DHT22;7322;50.872;4.386;2023-11-19T14:33:36;18.10;99.90
14473;DHT22;7322;50.872;4.386;2023-11-19T14:36:04;18.10;99.90
14473;DHT22;7322;50.872;4.386;2023-11-19T14:38:32;18.20;99.90
14473;DHT22;7322;50.872;4.386;2023-11-19T14:40:59;18.20;99.90
14473;DHT22;7322;50.872;4.386;2023-11-19T14:43:28;18.10;99.90
14473;DHT22;7322;50.872;4.386;2023-11-19T14:45:55;18.10;99.90
14473;DHT22;7322;50.872;4.386;2023-11-19T14:48:22;18.10;99.90
14473;DHT22;7322;50.872;4.386;2023-11-19T14:50:51;18.10;99.90
14473;DHT22;7322;50.872;4.386;2023-11-19T14:53:29;18.00;99.90
14473;DHT22;7322;50.872;4.386;2023-11-19T14:55:57;18.10;99.90
14473;DHT22;7322;50.872;4.386;2023-11-19T14:58:31;18.10;99.90
14473;DHT22;7322;50.872;4.386;2023-11-19T15:01:01;18.10;99.90
14473;DHT22;7322;50.872;4.386;2023-11-19T15:03:30;18.10;99.90
14473;DHT22;7322;50.872;4.386;2023-11-19T15:06:15;18.10;99.90
14473;DHT22;7322;50.872;4.386;2023-11-19T15:08:52;18.10;99.90
14473;DHT22;7322;50.872;4.386;2023-11-19T15:11:21;18.10;99.90
14473;DHT22;7322;50.872;4.386;2023-11-19T15:13:58;18.10;99.90
14473;DHT22;7322;50.872;4.386;2023-11-19T15:16:25;18.10;99.90
14473;DHT22;7322;50.872;4.386;2023-11-19T15:18:57;18.10;99.90
14473;DHT22;7322;50.872;4.386;2023-11-19T15:21:25;18.10;99.90
14473;DHT22;7322;50.872;4.386;2023-11-19T15:23:53;18.10;99.90
14473;DHT22;7322;50.872;4.386;2023-11-19T15:26:20;18.10;99.90
14473;DHT22;7322;50.872;4.386;2023-11-19T15:28:47;18.10;99.90
14473;DHT22;7322;50.872;4.386;2023-11-19T15:31:15;18.10;99.90
14473;DHT22;7322;50.872;4.386;2023-11-19T15:33:42;18.10;99.90
14473;DHT22;7322;50.872;4.386;2023-11-19T15:36:09;18.10;99.90
14473;DHT22;7322;50.872;4.386;2023-11-19T15:38:38;18.10;99.90
14473;DHT22;7322;50.872;4.386;2023-11-19T15:41:08;18.10;99.90
14473;DHT22;7322;50.872;4.386;2023-11-19T15:44:07;18.10;99.90
14473;DHT22;7322;50.872;4.386;2023-11-19T15:46:40;18.10;99.90
14473;DHT22;7322;50.872;4.386;2023-11-19T15:49:21;18.10;99.90
14473;DHT22;7322;50.872;4.386;2023-11-19T15:51:49;18.10;99.90
14473;DHT22;7322;50.872;4.386;2023-11-19T15:54:22;18.10;99.90
14473;DHT22;7322;50.872;4.386;2023-11-19T15:56:56;18.10;99.90
14473;DHT22;7322;50.872;4.386;2023-11-19T15:59:56;18.10;99.90
14473;DHT22;7322;50.872;4.386;2023-11-19T16:02:51;18.10;99.90
14473;DHT22;7322;50.872;4.386;2023-11-19T16:08:14;18.10;99.90
14473;DHT22;7322;50.872;4.386;2023-11-19T16:10:57;18.10;99.90
14473;DHT22;7322;50.872;4.386;2023-11-19T16:13:29;18.00;99.90
14473;DHT22;7322;50.872;4.386;2023-11-19T16:16:20;18.00;99.90
14473;DHT22;7322;50.872;4.386;2023-11-19T16:18:52;18.00;99.90
14473;DHT22;7322;50.872;4.386;2023-11-19T16:24:58;18.10;99.90
14473;DHT22;7322;50.872;4.386;2023-11-19T16:27:27;18.10;99.90
14473;DHT22;7322;50.872;4.386;2023-11-19T16:30:06;18.00;99.90
14473;DHT22;7322;50.872;4.386;2023-11-19T16:32:49;18.00;99.90
14473;DHT22;7322;50.872;4.386;2023-11-19T16:35:22;18.00;99.90
14473;DHT22;7322;50.872;4.386;2023-11-19T16:37:53;18.00;99.90
14473;DHT22;7322;50.872;4.386;2023-11-19T16:40:21;18.10;99.90